• Join FlightAware (Why Join?)
  • Login
  • US Flag 
09:02PM EDT


 

Airport Tracker/Info


-or-


 

Live Flight TrackerFlight Track Log ✈ N143DE ✈ 06-Jul-2013 ✈ KMYR - KLRO

Flight Track Log - Related Links

Times and Time Zones

All times are in EDT time to prevent confusion due to time zone crossing. See the N143DE flight status page for this flight to view local times or setup timezone preferences in your user account.

Time Position Orientation Groundspeed Altitude Reporting Facility
EDT Latitude Longitude Course Direction KTS MPH feet Rate Location/Type
10:52AM 33.4481 -79.1659 223° Southwest  Level FlightAware Approximate
10:53AM 33.4111 -79.2066 223° Southwest  Level FlightAware Approximate
10:54AM 33.3741 -79.2473 223° Southwest  Level FlightAware Approximate
10:55AM 33.3370 -79.2880 223° Southwest  Level FlightAware Approximate
10:56AM 33.3000 -79.3286 223° Southwest  Level FlightAware Approximate
10:57AM 33.2629 -79.3692 222° Southwest  Level FlightAware Approximate
10:58AM 33.2265 -79.4106 224° Southwest  Level FlightAware Approximate
10:59AM 33.1903 -79.4523 224° Southwest  Level FlightAware Approximate
11:00AM 33.1542 -79.4941 224° Southwest  Level FlightAware Approximate
11:01AM 33.1181 -79.5358 224° Southwest  Level FlightAware Approximate
11:02AM 33.0819 -79.5775 224° Southwest  Level FlightAware Approximate
11:03AM 33.0457 -79.6191 224° Southwest  Level FlightAware Approximate
11:04AM 33.0041 -79.6459 220° Southwest  Level FlightAware Approximate
11:05AM 32.9656 -79.6844 220° Southwest  Level FlightAware Approximate
11:06AM 32.9271 -79.7229 220° Southwest  Level FlightAware Approximate
11:07AM 32.8886 -79.7614 220° Southwest  Level FlightAware Approximate
11:08AM 32.8833 -79.7667 220° Southwest  Level FlightAware Approximate
11:09AM 32.8978 -79.7829 220° Southwest  Level Estimated
11:10AM 32.8978 -79.7829 220° Southwest  Level Estimated
11:11AM 32.8978 -79.7829 220° Southwest  Level Estimated
11:12AM 32.8978 -79.7829 220° Southwest  Level Estimated
11:13AM 32.8978 -79.7829 220° Southwest  Level Estimated
11:14AM 32.8978 -79.7829 220° Southwest  Level Estimated